Portada
METAR-TAF:

METAR-TAF

Aeroports :

Marshall County Airport

Lacon, Illinois, Estats Units d'Amèrica

latitud: 41-01-09N, longitud: 089-23-11W, altitud: 173 m

Observació

L'informe es va fer fa 10 minuts, a les 04:55 UTC
Vent calma
Temperatura 21°C
Humitat 88%
Pressió 1015 hPa
Visibilitat: 16.1 km
Cel clar

METAR: KC75 050455Z AUTO 00000KT 10SM CLR 21/19 A2998 RMK AO2 T02140191

Hora: 00:05 (05:05 UTC)


TAF: manca

Observacions i pronòstics meteorològics de més de 4000 aeroports (METAR i TAF).

Les estacions disponibles són els punts grocs i vermells al mapa.

Posi el ratolí al punt desitjat per veure el nom de l'estació.

Feu clic per veure les observacions i els pronòstics meteorològics.

Per canviar el mapa: feu clic els botons verds amb una creu de color negre per apropar; al botó verd amb un guió per allunyar la imatge; o en les fletxes verdes per a mapes adjacents.


METAR-TAF: